createdAt,value
2018-03-16T00:00:05.192Z,20.10
2018-03-16T00:01:12.049Z,20.50
2018-03-16T00:02:18.805Z,18.20
2018-03-16T00:03:25.580Z,20.00
2018-03-16T00:04:32.444Z,19.80
2018-03-16T00:05:39.317Z,20.30
2018-03-16T00:06:46.089Z,17.80
2018-03-16T00:07:52.865Z,19.80
2018-03-16T00:08:59.657Z,19.80
2018-03-16T00:10:06.417Z,18.20
2018-03-16T00:11:13.285Z,19.20
2018-03-16T00:12:20.061Z,18.70
2018-03-16T00:13:26.851Z,16.80
2018-03-16T00:14:33.692Z,16.50
2018-03-16T00:15:40.468Z,17.70
2018-03-16T00:16:47.204Z,19.20
2018-03-16T00:17:53.952Z,17.20
2018-03-16T00:19:00.793Z,18.80
2018-03-16T00:20:07.555Z,20.20
2018-03-16T00:21:14.329Z,19.80
2018-03-16T00:22:21.188Z,19.10
2018-03-16T00:23:28.037Z,19.30
2018-03-16T00:24:34.825Z,19.90
2018-03-16T00:25:41.603Z,20.80
2018-03-16T00:26:48.356Z,19.90
2018-03-16T00:27:55.140Z,20.20
2018-03-16T00:29:02.031Z,19.90
2018-03-16T00:30:08.779Z,19.70
2018-03-16T00:31:15.560Z,21.90
2018-03-16T00:32:22.400Z,19.20
2018-03-16T00:33:29.160Z,19.70
2018-03-16T00:34:36.040Z,21.20
2018-03-16T00:35:42.823Z,21.90
2018-03-16T00:36:49.588Z,21.90
2018-03-16T00:37:56.356Z,21.20
2018-03-16T00:39:03.109Z,19.90
2018-03-16T00:40:09.893Z,20.90
2018-03-16T00:41:16.654Z,20.20
2018-03-16T00:42:23.392Z,20.30
2018-03-16T00:43:30.140Z,21.00
2018-03-16T00:44:36.920Z,20.70
2018-03-16T00:45:43.728Z,19.90
2018-03-16T00:46:50.487Z,20.70
2018-03-16T00:47:57.327Z,20.80
2018-03-16T00:49:04.064Z,21.90
2018-03-16T00:50:10.852Z,19.90
2018-03-16T00:51:17.604Z,19.80
2018-03-16T00:52:24.384Z,20.30
2018-03-16T00:53:31.145Z,19.90
2018-03-16T00:54:37.893Z,21.60
2018-03-16T00:55:45.113Z,20.60
2018-03-16T00:56:51.804Z,21.20
2018-03-16T00:57:58.581Z,22.00
2018-03-16T00:59:05.340Z,22.80
2018-03-16T01:00:12.144Z,20.40
2018-03-16T01:01:19.051Z,20.50
2018-03-16T01:02:25.787Z,21.60
2018-03-16T01:03:32.548Z,20.80
2018-03-16T01:04:39.276Z,23.70
2018-03-16T01:05:46.139Z,21.10
2018-03-16T01:06:52.917Z,21.00
2018-03-16T01:07:59.659Z,19.70
2018-03-16T01:09:06.504Z,21.50
2018-03-16T01:10:13.340Z,19.70
2018-03-16T01:11:20.121Z,20.60
2018-03-16T01:12:26.933Z,20.20
2018-03-16T01:13:33.688Z,21.20
2018-03-16T01:14:40.439Z,19.50
2018-03-16T01:15:47.208Z,20.40
2018-03-16T01:16:53.976Z,19.30
2018-03-16T01:18:00.710Z,20.90
2018-03-16T01:19:07.497Z,19.60
2018-03-16T01:20:14.363Z,18.90
2018-03-16T01:21:21.139Z,21.50
2018-03-16T01:22:27.915Z,20.60
2018-03-16T01:23:34.744Z,18.60
2018-03-16T01:24:41.485Z,19.00
2018-03-16T01:25:48.268Z,20.80
2018-03-16T01:26:55.036Z,20.80
2018-03-16T01:28:01.795Z,19.60
2018-03-16T01:29:08.566Z,21.10
2018-03-16T01:30:15.297Z,20.50
2018-03-16T01:31:22.056Z,19.60
2018-03-16T01:32:28.856Z,19.50
2018-03-16T01:33:35.613Z,20.60
2018-03-16T01:34:42.385Z,19.40
2018-03-16T01:35:49.247Z,21.20
2018-03-16T01:36:56.065Z,19.80
2018-03-16T01:38:02.819Z,20.90
2018-03-16T01:39:09.651Z,20.50
2018-03-16T01:40:16.393Z,21.30
2018-03-16T01:41:23.168Z,19.20
2018-03-16T01:42:29.948Z,20.10
2018-03-16T01:43:36.684Z,20.50
2018-03-16T01:44:43.433Z,20.40
2018-03-16T01:45:50.176Z,19.70
2018-03-16T01:46:56.962Z,20.20
2018-03-16T01:48:03.745Z,20.30
2018-03-16T01:49:10.511Z,20.90
2018-03-16T01:50:17.288Z,19.10
2018-03-16T01:51:24.169Z,20.40
2018-03-16T01:52:30.932Z,21.50
2018-03-16T01:53:37.688Z,22.20
2018-03-16T01:54:44.442Z,20.30
2018-03-16T01:55:51.204Z,20.10
2018-03-16T01:56:57.947Z,22.00
2018-03-16T01:58:04.717Z,20.60
2018-03-16T01:59:11.467Z,19.30
2018-03-16T02:00:18.284Z,19.00
2018-03-16T02:01:25.109Z,17.80
2018-03-16T02:02:31.873Z,18.00
2018-03-16T02:03:38.670Z,18.90
2018-03-16T02:04:45.435Z,18.80
2018-03-16T02:05:52.216Z,20.60
2018-03-16T02:06:59.064Z,22.70
2018-03-16T02:08:05.808Z,19.40
2018-03-16T02:09:12.608Z,19.00
2018-03-16T02:10:19.477Z,19.50
2018-03-16T02:11:26.228Z,18.40
2018-03-16T02:12:33.001Z,21.20
2018-03-16T02:13:39.762Z,20.20
2018-03-16T02:14:46.524Z,18.40
2018-03-16T02:15:53.288Z,18.60
2018-03-16T02:17:00.049Z,18.80
2018-03-16T02:18:06.912Z,20.60
2018-03-16T02:19:13.693Z,21.90
2018-03-16T02:20:20.474Z,20.80
2018-03-16T02:21:27.360Z,18.90
2018-03-16T02:22:34.087Z,18.30
2018-03-16T02:23:40.869Z,17.10
2018-03-16T02:24:47.763Z,18.70
2018-03-16T02:25:54.457Z,19.40
2018-03-16T02:27:01.185Z,20.10
2018-03-16T02:28:07.916Z,19.70
2018-03-16T02:29:14.635Z,17.90
2018-03-16T02:30:21.388Z,18.20
2018-03-16T02:31:28.144Z,18.80
2018-03-16T02:32:34.892Z,18.60
2018-03-16T02:33:41.647Z,19.20
2018-03-16T02:34:48.411Z,17.90
2018-03-16T02:35:55.159Z,18.00
2018-03-16T02:37:01.932Z,20.20
2018-03-16T02:38:08.768Z,19.00
2018-03-16T02:39:15.508Z,19.80
2018-03-16T02:40:22.312Z,20.10
2018-03-16T02:41:29.283Z,19.80
2018-03-16T02:42:36.058Z,20.20
2018-03-16T02:43:42.999Z,18.80
2018-03-16T02:44:49.796Z,20.10
2018-03-16T02:45:56.635Z,19.70
2018-03-16T02:47:03.377Z,18.40
2018-03-16T02:48:10.161Z,18.90
2018-03-16T02:49:16.916Z,18.50
2018-03-16T02:50:23.773Z,20.00
2018-03-16T02:51:30.525Z,19.90
2018-03-16T02:52:37.297Z,19.30
2018-03-16T02:53:44.136Z,18.00
2018-03-16T02:54:50.884Z,18.60
2018-03-16T02:55:57.656Z,20.00
2018-03-16T02:57:04.410Z,18.80
2018-03-16T02:58:11.228Z,18.20
2018-03-16T02:59:18.000Z,20.70
2018-03-16T03:00:24.879Z,19.90
2018-03-16T03:01:31.664Z,20.10
2018-03-16T03:02:38.489Z,20.80
2018-03-16T03:03:45.256Z,21.80
2018-03-16T03:04:52.109Z,22.20
2018-03-16T03:05:58.904Z,19.60
2018-03-16T03:07:05.780Z,18.70
2018-03-16T03:08:12.591Z,19.90
2018-03-16T03:09:19.330Z,19.70
2018-03-16T03:10:26.171Z,19.10
2018-03-16T03:11:32.964Z,18.80
2018-03-16T03:12:39.736Z,18.00
2018-03-16T03:13:46.651Z,19.90
2018-03-16T03:14:53.419Z,19.40
2018-03-16T03:16:00.248Z,18.90
2018-03-16T03:17:07.026Z,19.50
2018-03-16T03:18:13.794Z,20.00
2018-03-16T03:19:20.520Z,19.20
2018-03-16T03:20:27.374Z,20.40
2018-03-16T03:21:34.144Z,19.70
2018-03-16T03:22:40.916Z,19.00
2018-03-16T03:23:47.796Z,19.40
2018-03-16T03:24:54.552Z,19.40
2018-03-16T03:26:01.293Z,19.00
2018-03-16T03:27:08.076Z,18.30
2018-03-16T03:28:14.833Z,19.00
2018-03-16T03:29:21.585Z,21.60
2018-03-16T03:30:28.436Z,20.50
2018-03-16T03:31:35.320Z,20.60
2018-03-16T03:32:42.073Z,19.90
2018-03-16T03:33:48.903Z,21.60
2018-03-16T03:34:55.647Z,19.30
2018-03-16T03:36:02.480Z,21.20
2018-03-16T03:37:09.267Z,21.00
2018-03-16T03:38:16.068Z,21.70
2018-03-16T03:39:22.804Z,20.40
2018-03-16T03:40:29.643Z,20.30
2018-03-16T03:41:36.460Z,19.30
2018-03-16T03:42:43.232Z,20.30
2018-03-16T03:43:50.000Z,19.90
2018-03-16T03:44:56.981Z,20.70
2018-03-16T03:46:03.782Z,20.10
2018-03-16T03:47:10.520Z,19.10
2018-03-16T03:48:17.324Z,18.30
2018-03-16T03:49:24.087Z,19.00
2018-03-16T03:50:30.839Z,17.00
2018-03-16T03:51:37.677Z,20.00
2018-03-16T03:52:44.520Z,20.70
2018-03-16T03:53:51.331Z,19.60
2018-03-16T03:54:58.144Z,19.20
2018-03-16T03:56:04.896Z,19.80
2018-03-16T03:57:11.668Z,18.80
2018-03-16T03:58:18.400Z,20.40
2018-03-16T03:59:25.212Z,19.90
2018-03-16T04:00:31.984Z,19.10
2018-03-16T04:01:38.720Z,19.20
2018-03-16T04:02:45.488Z,20.00
2018-03-16T04:03:52.222Z,19.00
2018-03-16T04:04:59.052Z,18.20
2018-03-16T04:06:05.811Z,20.20
2018-03-16T04:07:12.652Z,18.30
2018-03-16T04:08:19.424Z,19.30
2018-03-16T04:09:26.212Z,17.70
2018-03-16T04:10:32.945Z,18.80
2018-03-16T04:11:39.791Z,19.10
2018-03-16T04:12:46.560Z,18.40
2018-03-16T04:13:53.409Z,16.90
2018-03-16T04:15:00.333Z,17.30
2018-03-16T04:16:07.112Z,19.30
2018-03-16T04:17:13.919Z,18.10
2018-03-16T04:18:20.677Z,17.90
2018-03-16T04:19:27.455Z,17.10
2018-03-16T04:20:34.217Z,18.80
2018-03-16T04:21:40.985Z,17.50
2018-03-16T04:22:47.731Z,16.70
2018-03-16T04:23:54.475Z,17.60
2018-03-16T04:25:01.240Z,17.30
2018-03-16T04:26:08.024Z,17.00
2018-03-16T04:27:14.772Z,17.10
2018-03-16T04:28:21.544Z,17.30
2018-03-16T04:29:28.298Z,17.80
2018-03-16T04:30:35.098Z,16.70
2018-03-16T04:31:41.861Z,16.20
2018-03-16T04:32:48.604Z,16.90
2018-03-16T04:33:55.345Z,16.00
2018-03-16T04:35:02.132Z,17.90
2018-03-16T04:36:08.900Z,16.40
2018-03-16T04:37:15.676Z,15.10
2018-03-16T04:38:22.415Z,16.00
2018-03-16T04:39:29.196Z,15.70
2018-03-16T04:40:35.947Z,13.60
2018-03-16T04:41:42.716Z,13.70
2018-03-16T04:42:49.464Z,13.30
2018-03-16T04:43:56.244Z,13.00
2018-03-16T04:45:02.983Z,12.30
2018-03-16T04:46:09.831Z,12.40
2018-03-16T04:47:16.681Z,12.20
2018-03-16T04:48:23.442Z,11.50
2018-03-16T04:49:30.236Z,11.20
2018-03-16T04:50:37.096Z,11.90
2018-03-16T04:51:43.868Z,11.50
2018-03-16T04:52:50.639Z,11.60
2018-03-16T04:53:57.387Z,11.00
2018-03-16T04:55:04.148Z,10.60
2018-03-16T04:56:10.933Z,9.30
2018-03-16T04:57:17.673Z,10.90
2018-03-16T04:58:24.456Z,10.20
2018-03-16T04:59:31.232Z,9.70
2018-03-16T05:00:37.999Z,10.30
2018-03-16T05:01:44.817Z,10.60
2018-03-16T05:02:51.653Z,10.00
2018-03-16T05:03:58.414Z,10.90
2018-03-16T05:05:05.275Z,10.90
2018-03-16T05:06:12.063Z,10.10
2018-03-16T05:07:18.815Z,10.60
2018-03-16T05:08:25.576Z,11.60
2018-03-16T05:09:32.424Z,11.00
2018-03-16T05:10:39.166Z,10.70
2018-03-16T05:11:45.939Z,10.80
2018-03-16T05:12:52.724Z,11.10
2018-03-16T05:13:59.513Z,10.50
2018-03-16T05:15:06.287Z,9.60
2018-03-16T05:16:13.033Z,10.30
2018-03-16T05:17:19.921Z,10.70
2018-03-16T05:18:26.765Z,10.70
2018-03-16T05:19:33.715Z,11.10
2018-03-16T05:20:40.492Z,9.60
2018-03-16T05:21:47.224Z,10.10
2018-03-16T05:22:54.036Z,11.20
2018-03-16T05:24:00.763Z,10.10
2018-03-16T05:25:07.609Z,10.80
2018-03-16T05:26:14.305Z,11.20
2018-03-16T05:27:21.057Z,11.20
2018-03-16T05:28:27.781Z,10.80
2018-03-16T05:29:34.488Z,10.30
2018-03-16T05:30:41.210Z,10.30
2018-03-16T05:31:47.917Z,9.80
2018-03-16T05:32:54.824Z,9.80
2018-03-16T05:34:01.560Z,10.50
2018-03-16T05:35:08.284Z,10.90
2018-03-16T05:36:15.013Z,10.70
2018-03-16T05:37:21.747Z,10.20
2018-03-16T05:38:28.507Z,10.40
2018-03-16T05:39:35.339Z,10.10
2018-03-16T05:40:42.195Z,10.70
2018-03-16T05:41:48.912Z,10.40
2018-03-16T05:42:55.659Z,9.90
2018-03-16T05:44:02.414Z,11.00
2018-03-16T05:45:09.345Z,10.00
2018-03-16T05:46:16.092Z,10.40
2018-03-16T05:47:22.797Z,9.30
2018-03-16T05:48:29.592Z,9.40
2018-03-16T05:49:36.299Z,9.70
2018-03-16T05:50:43.015Z,9.20
2018-03-16T05:51:49.780Z,10.00
2018-03-16T05:52:56.468Z,9.30
2018-03-16T05:54:03.272Z,9.90
2018-03-16T05:55:10.004Z,10.10
2018-03-16T05:56:16.724Z,9.90
2018-03-16T05:57:23.440Z,9.10
2018-03-16T05:58:30.154Z,10.70
2018-03-16T05:59:37.004Z,10.40
2018-03-16T06:00:43.739Z,9.70
2018-03-16T06:01:50.457Z,9.70
2018-03-16T06:02:57.152Z,9.90
2018-03-16T06:04:03.932Z,9.90
2018-03-16T06:05:10.738Z,10.10
2018-03-16T06:06:17.456Z,9.70
2018-03-16T06:07:24.281Z,9.80
2018-03-16T06:08:30.992Z,9.40
2018-03-16T06:09:37.731Z,9.20
2018-03-16T06:10:44.504Z,9.70
2018-03-16T06:11:51.248Z,8.80
2018-03-16T06:12:58.032Z,8.80
2018-03-16T06:14:04.761Z,8.80
2018-03-16T06:15:11.496Z,9.00
2018-03-16T06:16:18.223Z,8.80
2018-03-16T06:17:24.951Z,8.90
2018-03-16T06:18:31.696Z,8.50
2018-03-16T06:19:38.397Z,7.70
2018-03-16T06:20:45.168Z,7.20
2018-03-16T06:21:52.025Z,7.20
2018-03-16T06:22:58.760Z,8.20
2018-03-16T06:24:05.497Z,7.40
2018-03-16T06:25:12.233Z,7.60
2018-03-16T06:26:18.964Z,7.70
2018-03-16T06:27:25.696Z,7.60
2018-03-16T06:28:32.432Z,8.60
2018-03-16T06:29:39.140Z,8.40
2018-03-16T06:30:45.852Z,7.80
2018-03-16T06:31:52.628Z,8.10
2018-03-16T06:32:59.324Z,8.40
2018-03-16T06:34:06.125Z,8.50
2018-03-16T06:35:12.856Z,8.70
2018-03-16T06:36:19.669Z,7.40
2018-03-16T06:37:26.432Z,8.60
2018-03-16T06:38:33.178Z,8.10
2018-03-16T06:39:39.933Z,8.60
2018-03-16T06:40:46.752Z,8.60
2018-03-16T06:41:53.523Z,8.40
2018-03-16T06:43:00.212Z,9.20
2018-03-16T06:44:06.989Z,9.20
2018-03-16T06:45:13.728Z,8.90
2018-03-16T06:46:20.569Z,7.80
2018-03-16T06:47:27.324Z,9.20
2018-03-16T06:48:34.058Z,8.30
2018-03-16T06:49:40.803Z,8.30
2018-03-16T06:50:47.609Z,8.70
2018-03-16T06:51:54.371Z,9.00
2018-03-16T06:53:01.181Z,10.50
2018-03-16T06:54:07.904Z,10.40
2018-03-16T06:55:14.652Z,10.10
2018-03-16T06:56:21.417Z,9.40
2018-03-16T06:57:28.160Z,11.70
2018-03-16T06:58:34.930Z,11.50
2018-03-16T06:59:41.720Z,11.50
2018-03-16T07:00:48.454Z,10.50
2018-03-16T07:01:55.205Z,11.90
2018-03-16T07:03:01.943Z,11.80
2018-03-16T07:04:08.791Z,10.70
2018-03-16T07:05:15.524Z,12.00
2018-03-16T07:06:22.266Z,11.50
2018-03-16T07:07:29.016Z,9.20
2018-03-16T07:08:35.856Z,7.70
2018-03-16T07:09:42.583Z,7.80
2018-03-16T07:10:49.359Z,8.30
2018-03-16T07:11:56.091Z,7.30
2018-03-16T07:13:02.885Z,8.40
2018-03-16T07:14:09.640Z,8.60
2018-03-16T07:15:16.371Z,7.80
2018-03-16T07:16:23.288Z,8.70
2018-03-16T07:17:30.067Z,8.50
2018-03-16T07:18:36.783Z,8.40
2018-03-16T07:19:43.544Z,8.60
2018-03-16T07:20:50.335Z,8.90
2018-03-16T07:21:57.273Z,8.70
2018-03-16T07:23:04.124Z,8.20
2018-03-16T07:24:10.936Z,8.30
2018-03-16T07:25:17.712Z,11.20
2018-03-16T07:26:24.728Z,11.40
2018-03-16T07:27:31.520Z,11.70
2018-03-16T07:28:38.410Z,10.50
2018-03-16T07:29:45.237Z,11.20
2018-03-16T07:30:52.132Z,9.70
2018-03-16T07:31:58.896Z,9.70
2018-03-16T07:33:05.677Z,10.50
2018-03-16T07:34:12.492Z,10.40
2018-03-16T07:35:19.369Z,9.40
2018-03-16T07:36:26.139Z,9.80
2018-03-16T07:37:32.940Z,10.10
2018-03-16T07:38:39.736Z,9.40
2018-03-16T07:39:46.524Z,9.20
2018-03-16T07:40:53.364Z,10.70
2018-03-16T07:42:00.157Z,9.30
2018-03-16T07:43:06.944Z,9.10
2018-03-16T07:44:13.760Z,9.30
2018-03-16T07:45:20.570Z,9.40
2018-03-16T07:46:27.374Z,9.50
2018-03-16T07:47:34.198Z,9.90
2018-03-16T07:48:40.994Z,8.40
2018-03-16T07:49:47.801Z,8.50
2018-03-16T07:50:54.613Z,6.70
2018-03-16T07:52:01.389Z,7.10
2018-03-16T07:53:08.172Z,6.90
2018-03-16T07:54:15.005Z,6.60
2018-03-16T07:55:21.816Z,7.00
2018-03-16T07:56:28.632Z,7.10
2018-03-16T07:57:35.448Z,6.40
2018-03-16T07:58:42.244Z,6.70
2018-03-16T07:59:49.012Z,6.80
2018-03-16T08:00:55.876Z,7.00
2018-03-16T08:02:02.665Z,7.20
2018-03-16T08:03:09.454Z,7.60
2018-03-16T08:04:16.268Z,7.60
2018-03-16T08:05:23.029Z,7.70
2018-03-16T08:06:29.820Z,6.60
2018-03-16T08:07:36.589Z,7.00
2018-03-16T08:08:43.402Z,6.60
2018-03-16T08:09:50.144Z,7.90
2018-03-16T08:10:56.933Z,8.00
2018-03-16T08:12:03.788Z,7.50
2018-03-16T08:13:10.556Z,8.00
2018-03-16T08:14:17.345Z,8.20
2018-03-16T08:15:24.212Z,7.30
2018-03-16T08:16:31.006Z,10.60
2018-03-16T08:17:37.773Z,10.00
2018-03-16T08:18:44.596Z,8.10
2018-03-16T08:19:51.357Z,7.70
2018-03-16T08:20:58.168Z,7.50
2018-03-16T08:22:05.032Z,7.30
2018-03-16T08:23:11.766Z,7.70
2018-03-16T08:24:18.521Z,7.20
2018-03-16T08:25:25.253Z,6.50
2018-03-16T08:26:32.077Z,6.80
2018-03-16T08:27:38.803Z,7.30
2018-03-16T08:28:45.536Z,7.20
2018-03-16T08:29:52.337Z,6.50
2018-03-16T08:30:59.096Z,7.00
2018-03-16T08:32:05.872Z,7.00
2018-03-16T08:33:12.652Z,6.70
2018-03-16T08:34:19.568Z,6.90
2018-03-16T08:35:26.644Z,6.50
2018-03-16T08:36:33.404Z,6.50
2018-03-16T08:37:40.246Z,6.30
2018-03-16T08:38:47.080Z,6.40
2018-03-16T08:39:53.881Z,6.90
2018-03-16T08:41:00.949Z,6.10
2018-03-16T08:42:07.729Z,6.50
2018-03-16T08:43:14.533Z,6.30
2018-03-16T08:44:21.450Z,6.70
2018-03-16T08:45:28.251Z,6.40
2018-03-16T08:46:35.133Z,6.40
2018-03-16T08:47:42.169Z,6.40
2018-03-16T08:48:48.988Z,5.90
2018-03-16T08:49:55.885Z,6.10
2018-03-16T08:51:02.676Z,6.70
2018-03-16T08:52:09.490Z,6.50
2018-03-16T08:53:16.313Z,6.10
2018-03-16T08:54:23.164Z,6.00
2018-03-16T08:55:30.040Z,5.40
2018-03-16T08:56:37.054Z,5.60
2018-03-16T08:57:43.868Z,5.90
2018-03-16T08:58:50.652Z,6.40
2018-03-16T08:59:57.438Z,5.30
2018-03-16T09:01:04.228Z,6.00
2018-03-16T09:02:10.989Z,5.90
2018-03-16T09:03:18.004Z,6.00
2018-03-16T09:04:24.836Z,5.90
2018-03-16T09:05:31.756Z,5.40
2018-03-16T09:06:38.704Z,5.20
2018-03-16T09:07:45.697Z,5.60
2018-03-16T09:08:52.476Z,5.20
2018-03-16T09:09:59.274Z,5.20
2018-03-16T09:11:06.005Z,5.60
2018-03-16T09:12:12.748Z,5.20
2018-03-16T09:13:19.528Z,5.30
2018-03-16T09:14:26.333Z,4.80
2018-03-16T09:15:33.040Z,5.90
2018-03-16T09:16:39.766Z,4.80
2018-03-16T09:17:46.589Z,5.30
2018-03-16T09:18:53.478Z,5.80
2018-03-16T09:20:00.217Z,5.20
2018-03-16T09:21:07.165Z,5.10
2018-03-16T09:22:13.952Z,5.20
2018-03-16T09:23:20.777Z,5.50
2018-03-16T09:24:27.568Z,4.90
2018-03-16T09:25:34.318Z,5.20
2018-03-16T09:26:41.097Z,5.10
2018-03-16T09:27:47.903Z,4.90
2018-03-16T09:28:54.692Z,4.70
2018-03-16T09:30:01.492Z,5.40
2018-03-16T09:31:08.403Z,5.00
2018-03-16T09:32:15.171Z,5.00
2018-03-16T09:33:22.189Z,5.10
2018-03-16T09:34:28.992Z,5.00
2018-03-16T09:35:35.747Z,5.10
2018-03-16T09:36:42.689Z,5.20
2018-03-16T09:37:49.455Z,4.90
2018-03-16T09:38:56.232Z,4.50
2018-03-16T09:40:03.009Z,4.20
2018-03-16T09:41:09.840Z,4.00
2018-03-16T09:42:16.646Z,4.30
2018-03-16T09:43:23.408Z,4.40
2018-03-16T09:44:30.252Z,4.80
2018-03-16T09:45:37.003Z,4.70
2018-03-16T09:46:43.817Z,4.40
2018-03-16T09:47:50.628Z,4.40
2018-03-16T09:48:57.465Z,3.80
2018-03-16T09:50:04.219Z,4.10
2018-03-16T09:51:10.976Z,4.50
2018-03-16T09:52:22.777Z,3.60
2018-03-16T09:53:24.796Z,4.50
2018-03-16T09:54:31.476Z,4.00
2018-03-16T09:55:38.373Z,4.00
2018-03-16T09:56:45.079Z,5.80
2018-03-16T09:57:51.912Z,4.90
2018-03-16T09:58:58.652Z,4.50
2018-03-16T10:00:05.444Z,4.30
2018-03-16T10:01:12.217Z,3.80
2018-03-16T10:02:19.115Z,3.60
2018-03-16T10:03:25.950Z,4.40
2018-03-16T10:04:32.952Z,4.10
2018-03-16T10:05:39.745Z,4.00
2018-03-16T10:06:46.493Z,4.20
2018-03-16T10:07:53.324Z,3.40
2018-03-16T10:09:00.121Z,3.90
2018-03-16T10:10:07.107Z,3.20
2018-03-16T10:11:13.887Z,4.00
2018-03-16T10:12:20.716Z,3.50
2018-03-16T10:13:27.496Z,3.60
2018-03-16T10:14:34.248Z,3.60
2018-03-16T10:15:41.054Z,3.40
2018-03-16T10:16:47.921Z,3.20
2018-03-16T10:17:54.676Z,4.00
2018-03-16T10:19:01.464Z,3.40
2018-03-16T10:20:08.297Z,3.60
2018-03-16T10:21:15.077Z,3.20
2018-03-16T10:22:21.832Z,3.30
2018-03-16T10:23:28.532Z,3.50
2018-03-16T10:24:35.309Z,3.60
2018-03-16T10:25:42.054Z,3.30
2018-03-16T10:26:48.765Z,3.60
2018-03-16T10:27:55.499Z,3.10
2018-03-16T10:29:02.212Z,3.10
2018-03-16T10:30:08.964Z,3.00
2018-03-16T10:31:15.709Z,3.60
2018-03-16T10:32:22.428Z,3.70
2018-03-16T10:33:29.157Z,3.40
2018-03-16T10:34:35.851Z,3.30
2018-03-16T10:35:42.705Z,3.70
2018-03-16T10:36:49.460Z,3.20
2018-03-16T10:37:56.208Z,3.20
2018-03-16T10:39:03.020Z,2.70
2018-03-16T10:40:09.800Z,2.90
2018-03-16T10:41:16.651Z,3.00
2018-03-16T10:42:23.455Z,3.00
2018-03-16T10:43:30.200Z,3.30
2018-03-16T10:44:36.929Z,3.10
2018-03-16T10:45:43.704Z,2.50
2018-03-16T10:46:50.492Z,2.70
2018-03-16T10:47:57.236Z,2.80
2018-03-16T10:49:04.274Z,2.70
2018-03-16T10:50:11.017Z,2.50
2018-03-16T10:51:17.768Z,3.40
2018-03-16T10:52:24.506Z,3.10
2018-03-16T10:53:31.301Z,2.30
2018-03-16T10:54:38.012Z,2.80
2018-03-16T10:55:44.837Z,2.50
2018-03-16T10:56:51.567Z,2.90
2018-03-16T10:57:58.340Z,2.60
2018-03-16T10:59:05.063Z,2.70
2018-03-16T11:00:11.761Z,2.30
2018-03-16T11:01:18.885Z,2.50
2018-03-16T11:02:25.732Z,2.70
2018-03-16T11:03:32.523Z,2.50
2018-03-16T11:04:39.302Z,2.70
2018-03-16T11:05:46.289Z,2.30
2018-03-16T11:06:53.073Z,2.50
2018-03-16T11:07:59.861Z,2.40
2018-03-16T11:09:06.978Z,2.50
2018-03-16T11:10:13.817Z,2.60
2018-03-16T11:11:20.571Z,2.70
2018-03-16T11:12:27.304Z,2.60
2018-03-16T11:13:34.077Z,2.50
2018-03-16T11:14:40.836Z,2.60
2018-03-16T11:15:47.568Z,2.70
2018-03-16T11:16:54.320Z,2.70
2018-03-16T11:18:01.077Z,3.00
2018-03-16T11:19:07.875Z,2.90
2018-03-16T11:20:14.599Z,2.50
2018-03-16T11:21:21.597Z,2.90
2018-03-16T11:22:28.406Z,2.90
2018-03-16T11:23:35.236Z,2.70
2018-03-16T11:24:42.023Z,2.90
2018-03-16T11:25:48.804Z,2.70
2018-03-16T11:26:55.584Z,3.10
2018-03-16T11:28:02.428Z,2.70
2018-03-16T11:29:09.320Z,3.60
2018-03-16T11:30:16.201Z,3.20
2018-03-16T11:31:22.982Z,2.50
2018-03-16T11:32:29.772Z,2.90
2018-03-16T11:33:36.613Z,2.50
2018-03-16T11:34:43.401Z,3.10
2018-03-16T11:35:50.189Z,3.00
2018-03-16T11:36:56.980Z,3.10
2018-03-16T11:38:03.777Z,3.10
2018-03-16T11:39:10.539Z,3.10
2018-03-16T11:40:17.389Z,3.20
2018-03-16T11:41:24.175Z,2.60
2018-03-16T11:42:30.940Z,2.70
2018-03-16T11:43:37.724Z,3.60
2018-03-16T11:44:44.524Z,3.70
2018-03-16T11:45:51.293Z,2.80
2018-03-16T11:46:58.113Z,2.60
2018-03-16T11:48:04.885Z,2.60
2018-03-16T11:49:11.791Z,3.70
2018-03-16T11:50:18.524Z,3.40
2018-03-16T11:51:25.280Z,2.80
2018-03-16T11:52:32.068Z,3.60
2018-03-16T11:53:38.880Z,3.30
2018-03-16T11:54:45.644Z,3.00
2018-03-16T11:55:52.448Z,2.80
2018-03-16T11:56:59.272Z,2.70
2018-03-16T11:58:06.058Z,3.10
2018-03-16T11:59:12.915Z,2.60
2018-03-16T12:00:19.753Z,2.40
2018-03-16T12:01:26.578Z,2.70
2018-03-16T12:02:33.401Z,2.40
2018-03-16T12:03:40.155Z,2.50
2018-03-16T12:04:46.977Z,2.70
2018-03-16T12:05:53.814Z,2.40
2018-03-16T12:07:00.581Z,2.90
2018-03-16T12:08:07.389Z,2.20
2018-03-16T12:09:14.207Z,2.20
2018-03-16T12:10:20.944Z,2.60
2018-03-16T12:11:27.728Z,2.00
2018-03-16T12:12:34.560Z,2.70
2018-03-16T12:13:41.338Z,3.30
2018-03-16T12:14:48.110Z,9.80
2018-03-16T12:15:54.945Z,20.10
2018-03-16T12:17:01.737Z,19.80
2018-03-16T12:18:08.528Z,12.70
2018-03-16T12:19:15.349Z,3.80
2018-03-16T12:20:22.178Z,4.10
2018-03-16T12:21:29.106Z,5.60
2018-03-16T12:22:36.008Z,3.40
2018-03-16T12:23:42.849Z,3.30
2018-03-16T12:24:49.584Z,4.00
2018-03-16T12:25:56.316Z,3.80
2018-03-16T12:27:03.072Z,4.10
2018-03-16T12:28:09.844Z,4.40
2018-03-16T12:29:16.573Z,3.60
2018-03-16T12:30:23.301Z,3.30
2018-03-16T12:31:30.049Z,2.80
2018-03-16T12:32:36.906Z,4.10
2018-03-16T12:33:43.680Z,4.20
2018-03-16T12:34:50.428Z,3.60
2018-03-16T12:35:57.272Z,7.90
2018-03-16T12:37:03.996Z,5.00
2018-03-16T12:38:10.781Z,16.50
2018-03-16T12:39:17.522Z,14.80
2018-03-16T12:40:24.292Z,9.20
2018-03-16T12:41:31.114Z,6.10
2018-03-16T12:42:37.860Z,5.20
2018-03-16T12:43:44.692Z,4.20
2018-03-16T12:44:51.444Z,3.80
2018-03-16T12:45:58.188Z,4.60
2018-03-16T12:47:04.949Z,4.50
2018-03-16T12:48:11.722Z,4.40
2018-03-16T12:49:18.456Z,3.40
2018-03-16T12:50:25.216Z,3.30
2018-03-16T12:51:31.949Z,3.80
2018-03-16T12:52:38.703Z,4.40
2018-03-16T12:53:45.475Z,4.40
2018-03-16T12:54:52.231Z,5.00
2018-03-16T12:55:59.004Z,4.00
2018-03-16T12:58:12.869Z,3.50
2018-03-16T12:59:19.591Z,4.00
2018-03-16T13:00:26.313Z,4.10
2018-03-16T13:01:33.016Z,4.40
2018-03-16T13:02:39.740Z,4.10
2018-03-16T13:03:46.549Z,4.00
2018-03-16T13:04:53.284Z,5.90
2018-03-16T13:06:00.003Z,5.30
2018-03-16T13:07:06.734Z,5.20
2018-03-16T13:08:13.596Z,4.60
2018-03-16T13:09:20.309Z,4.50
2018-03-16T13:10:27.088Z,4.90
2018-03-16T13:11:33.962Z,4.10
2018-03-16T13:12:40.716Z,3.80
2018-03-16T13:13:47.557Z,4.70
2018-03-16T13:16:01.260Z,4.20
2018-03-16T13:17:08.074Z,3.80
2018-03-16T13:18:14.765Z,4.20
2018-03-16T13:19:21.499Z,3.80
2018-03-16T13:20:28.228Z,4.20
2018-03-16T13:21:34.953Z,4.00
2018-03-16T13:22:41.685Z,4.20
2018-03-16T13:23:48.409Z,4.10
2018-03-16T13:24:55.118Z,4.30
2018-03-16T13:26:01.862Z,4.40
2018-03-16T13:27:13.581Z,5.20
2018-03-16T13:28:15.277Z,4.60
2018-03-16T13:29:22.061Z,4.70
2018-03-16T13:30:28.786Z,4.20
2018-03-16T13:31:35.509Z,6.50
2018-03-16T13:32:42.233Z,5.80
2018-03-16T13:33:48.911Z,4.90
2018-03-16T13:34:55.701Z,4.30
2018-03-16T13:36:02.435Z,6.30
2018-03-16T13:37:09.209Z,5.80
2018-03-16T13:38:16.093Z,6.00
2018-03-16T13:39:22.806Z,4.80
2018-03-16T13:40:29.523Z,4.60
2018-03-16T13:41:36.256Z,4.10
2018-03-16T13:42:42.956Z,3.90
2018-03-16T13:43:49.783Z,4.10
2018-03-16T13:44:56.594Z,4.20
2018-03-16T13:46:03.294Z,4.10
2018-03-16T13:47:10.129Z,3.70
2018-03-16T13:48:16.872Z,3.60
2018-03-16T13:49:23.583Z,3.40
2018-03-16T13:50:30.302Z,3.20
2018-03-16T13:51:37.160Z,3.30
2018-03-16T13:52:43.951Z,3.20
2018-03-16T13:53:50.666Z,3.80
2018-03-16T13:54:57.363Z,3.70
2018-03-16T13:56:04.100Z,3.90
2018-03-16T13:57:10.854Z,3.60
2018-03-16T13:58:17.562Z,3.80
2018-03-16T13:59:24.265Z,3.90
2018-03-16T14:00:30.967Z,3.80
2018-03-16T14:01:37.700Z,3.70
2018-03-16T14:02:44.423Z,3.90
2018-03-16T14:03:51.129Z,3.50
2018-03-16T14:04:58.088Z,3.60
2018-03-16T14:06:04.783Z,3.30
2018-03-16T14:07:11.492Z,3.80
2018-03-16T14:08:18.229Z,3.50
2018-03-16T14:09:24.924Z,4.00
2018-03-16T14:10:31.693Z,4.70
2018-03-16T14:11:38.392Z,3.40
2018-03-16T14:12:45.085Z,3.30
2018-03-16T14:13:51.829Z,3.00
2018-03-16T14:14:58.489Z,3.60
2018-03-16T14:16:05.189Z,3.10
2018-03-16T14:17:11.953Z,3.20
2018-03-16T14:18:18.669Z,3.70
2018-03-16T14:19:25.423Z,3.00
2018-03-16T14:20:32.105Z,3.60
2018-03-16T14:21:38.809Z,2.80
2018-03-16T14:22:45.574Z,2.90
2018-03-16T14:23:52.266Z,2.80
2018-03-16T14:24:58.999Z,2.90
2018-03-16T14:26:05.680Z,3.20
2018-03-16T14:27:12.405Z,3.20
2018-03-16T14:28:19.076Z,3.00
2018-03-16T14:29:25.835Z,2.70
2018-03-16T14:30:32.590Z,2.70
2018-03-16T14:31:39.297Z,3.10
2018-03-16T14:32:46.009Z,3.00
2018-03-16T14:33:52.696Z,3.00
2018-03-16T14:34:59.501Z,3.30
2018-03-16T14:36:06.235Z,3.40
2018-03-16T14:37:12.928Z,3.10
2018-03-16T14:38:19.636Z,3.60